Time;durP1;ratioP1;P1;durP2;ratioP2;P2;SDS_P1;SDS_P2;PMS_P1;PMS_P2;Temp;Humidity;BMP_temperature;BMP_pressure;BME280_temperature;BME280_humidity;BME280_pressure;Samples;Min_cycle;Max_cycle;Signal;HPM_P1;HPM_P2
2022/12/06 00:02:03;;;;;;;13.65;7.53;;;;;;;4.78;100.00;100780.41;5029133;28;20555;-73
2022/12/06 00:04:28;;;;;;;13.00;7.97;;;;;;;4.73;100.00;100782.03;5027321;28;20392;-73
2022/12/06 00:06:54;;;;;;;15.40;7.53;;;;;;;4.70;100.00;100779.38;5021806;28;20492;-73
2022/12/06 00:09:25;;;;;;;11.20;7.00;;;;;;;4.75;100.00;100770.78;5023688;28;20043;-73
2022/12/06 00:11:51;;;;;;;11.15;6.75;;;;;;;4.76;100.00;100769.03;5021162;28;20447;-73
2022/12/06 00:14:18;;;;;;;11.02;6.68;;;;;;;4.71;100.00;100768.94;5021810;28;20041;-73
2022/12/06 00:16:43;;;;;;;10.95;6.93;;;;;;;4.67;100.00;100766.25;5023673;28;20563;-73
2022/12/06 00:19:13;;;;;;;11.82;6.78;;;;;;;4.69;100.00;100768.03;5023185;28;20040;-73
2022/12/06 00:21:39;;;;;;;13.05;6.80;;;;;;;4.71;100.00;100768.06;5020600;28;20100;-73
2022/12/06 00:24:12;;;;;;;11.88;6.40;;;;;;;4.73;100.00;100767.22;5023452;28;20041;-73
2022/12/06 00:26:39;;;;;;;12.07;6.00;;;;;;;4.69;100.00;100774.97;5022344;28;20040;-73
2022/12/06 00:29:06;;;;;;;11.80;6.68;;;;;;;4.73;100.00;100776.81;5020673;28;20091;-73
2022/12/06 00:31:33;;;;;;;11.30;6.40;;;;;;;4.71;100.00;100773.28;5023741;28;20491;-73
2022/12/06 00:33:59;;;;;;;10.50;6.25;;;;;;;4.72;100.00;100773.31;5026964;28;20128;-73
2022/12/06 00:36:30;;;;;;;10.32;5.85;;;;;;;4.67;100.00;100772.34;5026458;28;20025;-73
2022/12/06 00:38:58;;;;;;;10.55;5.85;;;;;;;4.69;100.00;100777.59;5027630;28;20033;-73
2022/12/06 00:41:24;;;;;;;11.98;6.43;;;;;;;4.70;100.00;100774.16;5024199;28;20519;-73
2022/12/06 00:43:51;;;;;;;11.40;6.00;;;;;;;4.70;100.00;100775.03;5023290;28;20034;-73
2022/12/06 00:46:19;;;;;;;9.13;5.72;;;;;;;4.65;100.00;100773.16;5027634;28;20076;-73
2022/12/06 00:48:46;;;;;;;14.77;6.85;;;;;;;4.67;100.00;100771.47;5023246;28;20037;-73
2022/12/06 00:51:13;;;;;;;12.07;6.60;;;;;;;4.67;100.00;100777.56;5020365;28;20484;-73
2022/12/06 00:53:38;;;;;;;9.20;5.80;;;;;;;4.71;100.00;100774.16;5023738;28;20471;-73
2022/12/06 00:56:04;;;;;;;11.77;6.25;;;;;;;4.73;100.00;100769.84;5020537;28;20125;-73
2022/12/06 00:58:29;;;;;;;8.90;5.45;;;;;;;4.74;100.00;100770.72;5022381;28;20508;-73
2022/12/06 01:00:54;;;;;;;9.05;5.57;;;;;;;4.77;100.00;100774.31;5021633;28;20037;-73
2022/12/06 01:03:20;;;;;;;11.55;5.18;;;;;;;4.70;100.00;100771.53;5024055;28;20044;-73
2022/12/06 01:05:47;;;;;;;10.30;5.32;;;;;;;4.71;100.00;100771.53;5025257;28;20411;-73
2022/12/06 01:08:13;;;;;;;11.48;5.80;;;;;;;4.71;100.00;100763.69;5025134;28;20480;-74
2022/12/06 01:10:39;;;;;;;10.85;5.93;;;;;;;4.68;100.00;100758.41;5020283;28;20034;-73
2022/12/06 01:13:05;;;;;;;9.18;5.13;;;;;;;4.74;100.00;100761.19;5023612;28;20053;-73
2022/12/06 01:15:31;;;;;;;9.48;4.97;;;;;;;4.81;100.00;100757.81;5021080;28;20099;-73
2022/12/06 01:17:57;;;;;;;11.77;6.05;;;;;;;4.84;100.00;100760.50;5022201;28;20496;-73
2022/12/06 01:20:23;;;;;;;9.52;5.05;;;;;;;4.86;100.00;100762.28;5020068;28;20062;-73
2022/12/06 01:22:48;;;;;;;9.65;5.50;;;;;;;4.75;100.00;100765.53;5023061;28;20587;-73
2022/12/06 01:25:13;;;;;;;9.60;5.38;;;;;;;4.78;100.00;100764.72;5019985;28;20038;-73
2022/12/06 01:27:39;;;;;;;8.57;5.30;;;;;;;4.86;100.00;100763.16;5021749;28;20103;-73
2022/12/06 01:30:05;;;;;;;9.63;5.05;;;;;;;4.82;100.00;100758.69;5021187;28;20128;-73
2022/12/06 01:32:31;;;;;;;10.32;5.45;;;;;;;4.81;100.00;100755.19;5020619;28;20103;-73
2022/12/06 01:34:56;;;;;;;10.43;5.35;;;;;;;4.78;100.00;100763.00;5023917;28;20037;-73
2022/12/06 01:37:21;;;;;;;12.32;5.28;;;;;;;4.73;100.00;100761.13;5022709;28;20385;-73
2022/12/06 01:39:47;;;;;;;9.90;5.10;;;;;;;4.70;100.00;100759.34;5019796;28;20507;-73
2022/12/06 01:42:13;;;;;;;8.68;4.50;;;;;;;4.62;100.00;100750.44;5021926;28;20068;-73
2022/12/06 01:44:53;;;;;;;9.68;5.10;;;;;;;4.59;100.00;100747.78;5021044;28;20068;-73
2022/12/06 01:47:31;;;;;;;8.88;4.53;;;;;;;4.59;100.00;100750.38;5019526;28;20488;-73
2022/12/06 01:50:03;;;;;;;8.68;5.07;;;;;;;4.53;100.00;100748.53;5020325;28;20038;-73
2022/12/06 01:52:36;;;;;;;8.80;4.47;;;;;;;4.56;100.00;100751.19;5023619;28;20055;-73
2022/12/06 01:55:06;;;;;;;9.43;5.38;;;;;;;4.51;100.00;100747.59;5022631;28;20045;-73
2022/12/06 01:57:32;;;;;;;7.60;4.10;;;;;;;4.51;100.00;100747.59;5022312;28;20033;-73
2022/12/06 01:59:57;;;;;;;7.22;4.38;;;;;;;4.55;100.00;100743.31;5021378;28;20037;-73
2022/12/06 02:02:23;;;;;;;8.50;4.68;;;;;;;4.56;100.00;100737.25;5026213;28;20038;-73
2022/12/06 02:04:50;;;;;;;7.82;4.00;;;;;;;4.61;100.00;100730.38;5029689;28;20504;-73
2022/12/06 02:07:16;;;;;;;9.63;4.20;;;;;;;4.59;100.00;100726.84;5024502;28;20047;-73
2022/12/06 02:09:43;;;;;;;9.00;5.15;;;;;;;4.63;100.00;100728.66;5025683;28;20032;-73
2022/12/06 02:12:13;;;;;;;7.40;4.50;;;;;;;4.61;100.00;100720.81;5023087;28;20095;-73
2022/12/06 02:14:40;;;;;;;9.02;4.53;;;;;;;4.59;100.00;100719.91;5026922;28;20518;-73
2022/12/06 02:17:13;;;;;;;8.90;5.32;;;;;;;4.53;100.00;100711.03;5024614;28;20038;-73
2022/12/06 02:19:57;;;;;;;10.40;5.93;;;;;;;4.46;100.00;100704.81;5026149;28;20037;-73
2022/12/06 02:23:09;;;;;;;10.15;5.43;;;;;;;4.38;100.00;100707.25;5025192;28;20048;-73
2022/12/06 02:26:00;;;;;;;9.55;4.93;;;;;;;4.34;100.00;100701.91;5028868;28;20037;-73
2022/12/06 02:28:50;;;;;;;10.82;5.75;;;;;;;4.29;100.00;100701.81;5026280;28;20038;-73
2022/12/06 02:31:27;;;;;;;9.77;5.25;;;;;;;4.31;100.00;100694.00;5024755;28;20033;-73
2022/12/06 02:34:01;;;;;;;9.50;4.97;;;;;;;4.31;100.00;100692.28;5030641;28;20025;-73
2022/12/06 02:36:44;;;;;;;12.73;5.68;;;;;;;4.21;100.00;100692.03;5020501;28;20050;-73
2022/12/06 02:40:02;;;;;;;9.52;4.97;;;;;;;4.20;100.00;100691.16;5022565;28;20125;-73
2022/12/06 02:42:41;;;;;;;10.02;5.28;;;;;;;4.15;100.00;100696.28;5011528;28;20050;-73
2022/12/06 02:45:20;;;;;;;10.00;5.10;;;;;;;4.10;100.00;100683.97;5022389;28;20042;-73
2022/12/06 02:47:48;;;;;;;8.40;4.78;;;;;;;4.10;100.00;100679.63;5023600;28;20111;-73
2022/12/06 02:50:19;;;;;;;10.23;5.05;;;;;;;4.10;100.00;100683.97;5025534;28;20048;-73
2022/12/06 02:52:48;;;;;;;13.02;5.65;;;;;;;3.91;100.00;100678.34;5022834;28;20041;-73
2022/12/06 02:55:15;;;;;;;8.43;5.45;;;;;;;3.92;100.00;100680.09;5027369;28;20057;-74
2022/12/06 02:57:47;;;;;;;10.90;5.78;;;;;;;3.86;100.00;100673.84;5024728;28;20087;-73
2022/12/06 03:00:34;;;;;;;9.43;5.35;;;;;;;3.94;100.00;100678.41;5022547;28;20025;-73
2022/12/06 03:03:22;;;;;;;8.82;5.15;;;;;;;3.90;100.00;100673.97;5022119;28;20080;-73
2022/12/06 03:05:59;;;;;;;9.75;5.03;;;;;;;3.88;100.00;100673.03;5025805;28;20037;-73
2022/12/06 03:08:38;;;;;;;8.68;5.38;;;;;;;3.89;100.00;100669.56;5023890;28;20037;-73
2022/12/06 03:11:04;;;;;;;9.25;5.32;;;;;;;3.89;100.00;100669.56;5021583;28;20042;-73
2022/12/06 03:13:38;;;;;;;9.35;5.10;;;;;;;3.96;100.00;100660.16;5024332;28;20029;-73
2022/12/06 03:16:16;;;;;;;10.85;5.65;;;;;;;3.85;100.00;100656.41;5024621;28;20048;-74
2022/12/06 03:18:48;;;;;;;11.18;5.80;;;;;;;3.84;100.00;100652.03;5024098;28;20092;-73
2022/12/06 03:21:19;;;;;;;10.85;5.68;;;;;;;3.86;100.00;100652.97;5024676;28;20621;-73
2022/12/06 03:23:49;;;;;;;11.20;6.20;;;;;;;3.89;100.00;100653.91;5022180;28;20041;-73
2022/12/06 03:26:20;;;;;;;11.45;5.50;;;;;;;3.97;100.00;100647.97;5023246;28;20041;-73
2022/12/06 03:28:49;;;;;;;12.90;6.22;;;;;;;4.01;100.00;100647.19;5024617;28;20039;-73
2022/12/06 03:31:15;;;;;;;12.85;6.43;;;;;;;3.93;100.00;100644.44;5021634;28;20034;-73
2022/12/06 03:33:45;;;;;;;12.13;6.10;;;;;;;4.02;100.00;100643.75;5025326;28;20506;-73
2022/12/06 03:36:13;;;;;;;10.95;6.05;;;;;;;4.03;100.00;100643.75;5023385;28;20053;-74
2022/12/06 03:38:50;;;;;;;11.63;5.30;;;;;;;4.06;100.00;100643.84;5025191;28;20025;-73
2022/12/06 03:41:20;;;;;;;8.57;5.10;;;;;;;4.08;100.00;100638.66;5022612;28;20041;-73
2022/12/06 03:43:46;;;;;;;12.23;6.05;;;;;;;4.08;100.00;100638.66;5022238;28;20072;-73
2022/12/06 03:46:16;;;;;;;10.32;5.57;;;;;;;4.14;100.00;100641.41;5024158;28;20065;-73
2022/12/06 03:48:45;;;;;;;9.70;5.95;;;;;;;4.18;100.00;100640.63;5021618;28;20092;-73
2022/12/06 03:51:17;;;;;;;9.07;5.30;;;;;;;4.18;100.00;100635.38;5022723;28;20076;-73
2022/12/06 03:53:52;;;;;;;10.47;5.97;;;;;;;4.17;100.00;100631.91;5035214;28;20498;-73
2022/12/06 03:56:19;;;;;;;12.48;6.47;;;;;;;4.10;100.00;100630.00;5025278;28;20037;-73
2022/12/06 03:58:45;;;;;;;10.38;5.97;;;;;;;4.15;100.00;100627.50;5022542;28;20369;-73
2022/12/06 04:01:11;;;;;;;11.05;6.32;;;;;;;4.15;100.00;100625.75;5023510;28;20036;-74
2022/12/06 04:03:36;;;;;;;11.13;6.43;;;;;;;4.15;100.00;100630.09;5024882;28;20099;-74
2022/12/06 04:06:03;;;;;;;13.82;6.20;;;;;;;4.19;100.00;100631.91;5020788;28;20041;-73
2022/12/06 04:08:29;;;;;;;14.85;5.68;;;;;;;4.19;100.00;100629.31;5023502;28;20031;-73
2022/12/06 04:10:54;;;;;;;9.57;5.38;;;;;;;4.17;100.00;100624.06;5027024;28;20610;-73
2022/12/06 04:13:20;;;;;;;11.88;5.90;;;;;;;4.18;100.00;100633.66;5028345;28;20038;-73
2022/12/06 04:15:45;;;;;;;9.77;6.43;;;;;;;4.15;100.00;100630.09;5022182;28;20049;-73
2022/12/06 04:18:15;;;;;;;13.25;5.30;;;;;;;4.13;100.00;100632.66;5027435;28;20385;-73
2022/12/06 04:23:40;;;;;;;8.63;5.40;;;;;;;4.17;100.00;100629.28;5021794;28;20029;-73
2022/12/06 04:26:07;;;;;;;11.80;6.18;;;;;;;4.12;100.00;100623.09;5021146;28;20393;-73
2022/12/06 04:39:30;;;;;;;13.05;6.65;;;;;;;4.27;100.00;100619.91;5020945;28;20029;-73
2022/12/06 04:44:40;;;;;;;13.30;6.68;;;;;;;4.20;100.00;100612.78;5021748;28;20037;-73
2022/12/06 04:47:06;;;;;;;12.90;6.55;;;;;;;4.22;100.00;100618.03;5026880;28;20064;-73
2022/12/06 04:49:32;;;;;;;11.63;6.35;;;;;;;4.17;100.00;100623.19;5026608;28;20083;-73
2022/12/06 04:51:58;;;;;;;12.75;6.53;;;;;;;4.14;100.00;100621.38;5030402;22;20129;-76
2022/12/06 04:54:24;;;;;;;10.10;6.55;;;;;;;4.10;100.00;100622.16;5009513;28;20520;-75
2022/12/06 04:56:49;;;;;;;14.20;7.03;;;;;;;4.15;100.00;100617.91;5014241;28;20419;-76
2022/12/06 04:59:15;;;;;;;11.77;6.68;;;;;;;4.20;100.00;100615.41;5003176;28;20109;-76
2022/12/06 05:01:40;;;;;;;12.05;5.93;;;;;;;4.24;100.00;100618.94;5002454;28;20030;-76
2022/12/06 05:04:06;;;;;;;11.48;6.65;;;;;;;4.22;100.00;100621.56;5001828;28;20129;-76
2022/12/06 05:06:31;;;;;;;13.40;6.72;;;;;;;4.07;100.00;100621.22;5003780;28;20077;-76
2022/12/06 05:08:56;;;;;;;11.25;6.32;;;;;;;4.09;100.00;100609.09;5007740;28;20493;-76
2022/12/06 05:11:21;;;;;;;12.93;6.38;;;;;;;4.02;100.00;100615.03;5008672;28;20564;-77
2022/12/06 05:13:47;;;;;;;10.35;5.60;;;;;;;4.04;100.00;100614.19;5007960;28;20480;-76
2022/12/06 05:16:12;;;;;;;13.85;6.63;;;;;;;4.03;100.00;100611.53;5001812;28;20484;-76
2022/12/06 05:18:38;;;;;;;12.63;6.53;;;;;;;4.02;100.00;100609.78;5003463;28;20033;-76
2022/12/06 05:21:18;;;;;;;15.00;6.22;;;;;;;4.06;100.00;100601.16;5002271;28;20042;-76
2022/12/06 05:23:44;;;;;;;10.15;6.15;;;;;;;3.95;100.00;100611.38;5002209;28;20065;-75
2022/12/06 05:26:13;;;;;;;11.32;6.93;;;;;;;3.98;100.00;100602.72;5007896;28;20034;-75
2022/12/06 05:28:38;;;;;;;10.18;6.30;;;;;;;4.00;100.00;100604.53;5008912;28;20079;-75
2022/12/06 05:31:04;;;;;;;12.00;6.43;;;;;;;3.96;100.00;100602.72;5000185;28;20026;-75
2022/12/06 05:33:30;;;;;;;11.20;6.75;;;;;;;3.93;100.00;100600.91;5002746;28;20030;-76
2022/12/06 05:35:56;;;;;;;12.55;7.03;;;;;;;3.97;100.00;100595.75;5002569;28;20710;-76
2022/12/06 05:38:22;;;;;;;12.75;7.50;;;;;;;4.03;100.00;100604.59;5000922;28;20062;-76
2022/12/06 05:40:48;;;;;;;12.00;7.00;;;;;;;4.05;100.00;100605.50;5001568;28;20037;-76
2022/12/06 05:43:14;;;;;;;12.20;6.03;;;;;;;4.00;100.00;100607.13;5009550;28;20472;-76
2022/12/06 05:45:39;;;;;;;11.80;6.35;;;;;;;4.07;100.00;100600.31;5009527;28;20112;-76
2022/12/06 05:48:05;;;;;;;15.15;7.10;;;;;;;3.98;100.00;100597.50;5006246;28;20120;-76
2022/12/06 05:50:32;;;;;;;9.57;6.25;;;;;;;3.94;100.00;100596.56;5009387;28;20072;-76
2022/12/06 05:52:59;;;;;;;11.88;5.78;;;;;;;4.01;100.00;100600.19;5005557;28;20026;-76
2022/12/06 05:55:25;;;;;;;11.90;6.30;;;;;;;3.95;100.00;100601.81;5010439;28;20033;-76
2022/12/06 05:57:51;;;;;;;12.05;5.85;;;;;;;3.96;100.00;100597.50;4985603;28;20038;-76
2022/12/06 06:00:17;;;;;;;11.98;6.45;;;;;;;4.00;100.00;100607.13;5008414;28;20035;-76
2022/12/06 06:02:43;;;;;;;12.10;6.68;;;;;;;3.97;100.00;100595.75;4992263;28;20044;-76
2022/12/06 06:05:08;;;;;;;11.07;6.38;;;;;;;4.01;100.00;100602.78;5001557;28;20035;-76
2022/12/06 06:07:34;;;;;;;13.50;7.20;;;;;;;3.95;100.00;100596.59;5008479;28;20048;-76
2022/12/06 06:09:59;;;;;;;12.48;7.28;;;;;;;3.87;100.00;100598.16;5004763;28;20484;-75
2022/12/06 06:12:25;;;;;;;13.55;7.53;;;;;;;3.85;100.00;100604.19;5003404;28;20506;-76
2022/12/06 06:14:50;;;;;;;12.43;6.55;;;;;;;3.87;100.00;100603.38;5004905;28;20648;-76
2022/12/06 06:17:15;;;;;;;12.25;6.55;;;;;;;3.87;100.00;100611.22;5007498;28;20452;-76
2022/12/06 06:19:41;;;;;;;11.23;7.18;;;;;;;3.88;100.00;100605.16;4988560;28;20040;-76
2022/12/06 06:22:06;;;;;;;12.63;7.00;;;;;;;3.84;100.00;100603.31;4983220;28;20034;-75
2022/12/06 06:24:40;;;;;;;12.95;7.40;;;;;;;3.81;100.00;100611.09;5003204;28;20030;-76
2022/12/06 06:27:05;;;;;;;13.48;8.23;;;;;;;3.80;100.00;100611.94;4999149;28;20049;-76
2022/12/06 06:29:31;;;;;;;13.27;7.72;;;;;;;3.73;100.00;100610.91;5002445;28;20041;-76
2022/12/06 06:31:57;;;;;;;14.13;7.50;;;;;;;3.78;100.00;100615.38;5000098;28;20125;-76
2022/12/06 06:34:23;;;;;;;12.68;7.75;;;;;;;3.81;100.00;100620.66;5001239;28;20038;-76
2022/12/06 06:36:48;;;;;;;12.82;7.50;;;;;;;3.85;100.00;100619.84;4999908;28;20042;-76
2022/12/06 06:39:14;;;;;;;11.10;6.32;;;;;;;3.90;100.00;100619.13;5005918;28;20064;-76
2022/12/06 06:41:39;;;;;;;15.98;8.70;;;;;;;3.89;100.00;100611.25;5000906;28;20034;-76
2022/12/06 06:44:04;;;;;;;10.68;6.70;;;;;;;4.00;100.00;100607.13;5003996;28;20120;-76
2022/12/06 06:46:30;;;;;;;11.63;7.10;;;;;;;4.02;100.00;100608.06;5003915;28;20106;-76
2022/12/06 06:48:56;;;;;;;11.50;5.80;;;;;;;4.02;100.00;100615.03;5009401;28;20071;-76
2022/12/06 06:51:21;;;;;;;9.32;5.47;;;;;;;4.10;100.00;100606.50;5004864;28;20030;-76
2022/12/06 06:53:46;;;;;;;11.32;5.43;;;;;;;4.16;100.00;100606.59;5009192;28;20057;-76
2022/12/06 06:56:12;;;;;;;9.88;5.10;;;;;;;4.23;100.00;100610.25;5008859;28;20036;-76
2022/12/06 06:58:37;;;;;;;8.57;4.55;;;;;;;4.23;100.00;100602.41;5004977;28;20417;-76
2022/12/06 07:01:05;;;;;;;10.73;5.45;;;;;;;4.13;100.00;100606.53;5004669;28;20077;-76
2022/12/06 07:03:30;;;;;;;9.90;5.07;;;;;;;4.14;100.00;100602.22;5011707;28;20034;-75
2022/12/06 07:05:58;;;;;;;9.95;5.13;;;;;;;4.07;100.00;100600.31;5006171;28;20455;-76
2022/12/06 07:08:25;;;;;;;10.20;4.97;;;;;;;4.08;100.00;100597.72;5002850;28;20034;-76
2022/12/06 07:10:50;;;;;;;11.35;5.57;;;;;;;4.13;100.00;100600.44;5012072;28;20037;-76
2022/12/06 07:13:16;;;;;;;11.63;5.43;;;;;;;4.06;100.00;100595.94;5006702;28;20026;-76
2022/12/06 07:15:42;;;;;;;8.27;4.28;;;;;;;4.02;100.00;100601.97;5011072;28;20036;-76
2022/12/06 07:18:07;;;;;;;12.63;5.07;;;;;;;4.07;100.00;100600.31;5008869;28;20041;-76
2022/12/06 07:20:33;;;;;;;12.00;5.47;;;;;;;4.11;100.00;100599.53;5003329;28;20092;-76
2022/12/06 07:22:58;;;;;;;8.40;4.43;;;;;;;4.17;100.00;100603.16;5005059;28;20038;-76
2022/12/06 07:25:23;;;;;;;11.90;5.53;;;;;;;4.17;100.00;100607.50;5005552;28;20064;-76
2022/12/06 07:27:49;;;;;;;9.27;4.63;;;;;;;4.14;100.00;100612.69;5005156;28;20088;-75
2022/12/06 07:30:14;;;;;;;12.77;5.25;;;;;;;4.11;100.00;100608.28;5005075;28;20124;-76
2022/12/06 07:32:40;;;;;;;8.98;4.82;;;;;;;4.17;100.00;100615.34;5002936;28;20040;-76
2022/12/06 07:35:05;;;;;;;13.18;5.45;;;;;;;4.22;100.00;100616.31;5009665;28;20085;-76
2022/12/06 07:37:31;;;;;;;11.93;4.88;;;;;;;4.25;100.00;100611.16;5007226;28;20061;-76
2022/12/06 07:39:56;;;;;;;12.55;6.35;;;;;;;4.29;100.00;100610.34;5002181;28;20035;-76
2022/12/06 07:45:07;;;;;;;11.60;5.55;;;;;;;4.31;100.00;100611.28;5003283;28;20034;-76
2022/12/06 07:47:38;;;;;;;9.88;5.43;;;;;;;4.34;100.00;100613.94;5007308;28;20033;-76
2022/12/06 07:50:05;;;;;;;9.55;5.15;;;;;;;4.33;100.00;100612.19;5002458;28;20386;-76
2022/12/06 07:52:32;;;;;;;10.05;5.47;;;;;;;4.29;100.00;100612.09;4985092;28;20046;-76
2022/12/06 07:54:58;;;;;;;10.70;5.32;;;;;;;4.10;100.00;100614.31;5009392;28;20044;-76
2022/12/06 07:57:23;;;;;;;10.98;4.93;;;;;;;4.16;100.00;100610.97;5006714;28;20049;-76
2022/12/06 07:59:48;;;;;;;11.00;5.15;;;;;;;4.14;100.00;100613.56;5009710;28;20038;-77
2022/12/06 08:02:19;;;;;;;10.45;5.40;;;;;;;4.10;100.00;100605.63;5001788;28;20038;-76
2022/12/06 08:04:45;;;;;;;11.38;5.82;;;;;;;3.93;100.00;100608.75;5006917;28;20499;-75
2022/12/06 08:07:10;;;;;;;11.55;5.97;;;;;;;3.92;100.00;100599.13;5008960;28;20030;-76
2022/12/06 08:09:36;;;;;;;19.08;6.32;;;;;;;3.92;100.00;100603.47;5008112;28;20037;-76
2022/12/06 08:12:01;;;;;;;12.52;5.32;;;;;;;3.85;100.00;100604.19;5001103;28;20065;-76
2022/12/06 08:14:26;;;;;;;7.05;3.70;;;;;;;3.86;100.00;100600.75;4986496;28;20045;-76
2022/12/06 08:16:52;;;;;;;10.43;5.00;;;;;;;3.87;100.00;100600.75;5006410;28;20034;-76
2022/12/06 08:19:17;;;;;;;10.27;4.60;;;;;;;3.98;100.00;100607.94;5008861;28;20042;-76
2022/12/06 08:21:42;;;;;;;10.15;4.20;;;;;;;4.06;100.00;100609.00;5006678;28;20034;-76
2022/12/06 08:24:08;;;;;;;10.45;5.03;;;;;;;4.07;100.00;100610.78;5004159;28;20038;-76
2022/12/06 08:26:34;;;;;;;9.70;5.30;;;;;;;4.02;100.00;100604.56;5003886;28;20061;-76
2022/12/06 08:29:00;;;;;;;10.77;4.40;;;;;;;4.09;100.00;100609.09;5000802;28;20485;-76
2022/12/06 08:31:26;;;;;;;11.77;5.53;;;;;;;4.11;100.00;100609.97;5002275;28;20056;-76
2022/12/06 08:33:51;;;;;;;14.35;5.60;;;;;;;4.14;100.00;100612.69;5003221;28;20041;-76
2022/12/06 08:36:19;;;;;;;9.13;4.80;;;;;;;4.04;100.00;100608.09;5005387;28;20096;-76
2022/12/06 08:38:45;;;;;;;11.48;5.55;;;;;;;4.05;100.00;100612.47;5003063;28;20481;-76
2022/12/06 08:43:56;;;;;;;10.30;4.95;;;;;;;4.13;100.00;100617.00;5001836;28;20057;-76
2022/12/06 08:46:22;;;;;;;15.30;6.95;;;;;;;4.13;100.00;100621.34;5003542;28;20033;-76
2022/12/06 08:48:48;;;;;;;13.60;6.22;;;;;;;4.09;100.00;100616.91;5005069;28;20033;-76
2022/12/06 08:51:13;;;;;;;16.67;6.95;;;;;;;4.07;100.00;100618.63;5002737;28;20037;-76
2022/12/06 08:53:38;;;;;;;12.90;6.72;;;;;;;4.02;100.00;100612.41;5005610;28;20408;-76
2022/12/06 08:56:04;;;;;;;12.98;6.95;;;;;;;4.02;100.00;100613.28;5002311;28;20103;-76
2022/12/06 08:58:30;;;;;;;13.30;6.20;;;;;;;4.00;100.00;100606.25;5000570;28;20042;-76
2022/12/06 09:00:55;;;;;;;16.45;7.00;;;;;;;3.99;100.00;100612.34;5003581;28;20037;-76
2022/12/06 09:03:21;;;;;;;13.50;7.50;;;;;;;4.05;100.00;100615.06;5004232;28;20039;-76
2022/12/06 09:05:46;;;;;;;11.63;6.07;;;;;;;4.05;100.00;100607.25;5006357;28;20046;-76
2022/12/06 09:08:11;;;;;;;12.57;6.25;;;;;;;3.88;100.00;100605.16;5001760;28;20072;-76
2022/12/06 09:10:37;;;;;;;12.32;5.88;;;;;;;3.82;100.00;100617.19;5003559;28;20037;-76
2022/12/06 09:13:02;;;;;;;13.77;7.22;;;;;;;3.82;100.00;100615.44;5000727;28;20448;-76
2022/12/06 09:15:27;;;;;;;10.63;5.90;;;;;;;3.90;100.00;100616.53;5005622;28;20472;-76
2022/12/06 09:17:53;;;;;;;12.63;6.63;;;;;;;3.82;100.00;100609.34;5008563;28;20041;-76
2022/12/06 09:20:18;;;;;;;11.88;5.97;;;;;;;3.83;100.00;100616.34;5003104;28;20104;-76
2022/12/06 09:22:44;;;;;;;14.60;6.32;;;;;;;3.81;100.00;100611.09;5002164;28;20037;-76
2022/12/06 09:25:10;;;;;;;14.63;6.60;;;;;;;3.80;100.00;100611.03;5002554;28;20034;-76
2022/12/06 09:27:36;;;;;;;12.70;6.30;;;;;;;3.80;100.00;100606.72;5000617;28;20070;-76
2022/12/06 09:30:02;;;;;;;11.80;6.60;;;;;;;3.92;100.00;100606.09;5002944;28;20073;-76
2022/12/06 09:32:28;;;;;;;14.15;6.03;;;;;;;3.92;100.00;100601.75;4998184;28;20044;-76
2022/12/06 09:34:54;;;;;;;165.32;87.05;;;;;;;4.05;100.00;100596.78;5001918;28;20113;-76
2022/12/06 09:37:19;;;;;;;12.43;11.63;;;;;;;4.18;100.00;100593.59;5008151;28;20132;-76
2022/12/06 09:39:50;;;;;;;1999.90;999.90;;;;;;;4.20;100.00;100594.50;4999916;28;20034;-76
2022/12/06 09:42:43;;;;;;;1999.90;999.90;;;;;;;4.24;100.00;100593.69;5008378;28;20046;-76
2022/12/06 09:45:27;;;;;;;;;;;;;;;4.26;100.00;100578.94;5007687;28;20053;-76
2022/12/06 09:48:11;;;;;;;1999.90;999.90;;;;;;;4.25;100.00;100589.38;5002327;28;19920;-76
2022/12/06 09:50:57;;;;;;;1999.90;999.90;;;;;;;4.14;100.00;100583.94;4986022;28;20045;-76
2022/12/06 09:53:40;;;;;;;1999.90;999.90;;;;;;;4.11;100.00;100581.25;4999528;28;20889;-76
2022/12/06 09:56:14;;;;;;;1999.90;999.90;;;;;;;4.15;100.00;100581.34;5001919;28;20134;-76
2022/12/06 09:59:07;;;;;;;1999.90;999.90;;;;;;;4.11;100.00;100573.41;5003861;28;20038;-76
2022/12/06 10:01:41;;;;;;;;;;;;;;;4.09;100.00;100573.41;5002259;28;20068;-76
2022/12/06 10:04:22;;;;;;;1999.90;999.90;;;;;;;4.04;100.00;100569.81;5007343;28;19918;-76
2022/12/06 10:07:18;;;;;;;1999.90;999.90;;;;;;;4.01;100.00;100572.34;5008491;28;20109;-76
2022/12/06 10:10:07;;;;;;;1999.90;999.90;;;;;;;3.95;100.00;100570.47;5006409;28;20041;-76
2022/12/06 10:12:54;;;;;;;1999.90;999.90;;;;;;;3.93;100.00;100556.53;5005609;28;20408;-76
2022/12/06 10:15:43;;;;;;;1999.90;999.90;;;;;;;4.02;100.00;100549.72;5008341;28;20067;-76
2022/12/06 10:18:24;;;;;;;1999.90;999.90;;;;;;;4.08;100.00;100557.69;5007379;28;20120;-76
2022/12/06 10:21:05;;;;;;;1999.90;999.90;;;;;;;3.98;100.00;100553.09;5012649;28;20026;-76
2022/12/06 10:23:44;;;;;;;1999.90;999.90;;;;;;;3.92;100.00;100549.53;5006925;28;20038;-76
2022/12/06 10:26:15;;;;;;;1999.90;999.90;;;;;;;3.80;100.00;100543.16;5003353;28;20096;-76
2022/12/06 10:28:58;;;;;;;1999.90;999.90;;;;;;;3.83;100.00;100548.47;5005593;28;20400;-76
2022/12/06 10:31:33;;;;;;;1999.90;999.90;;;;;;;3.79;100.00;100550.13;5004085;28;20042;-76
2022/12/06 10:34:10;;;;;;;1999.90;999.90;;;;;;;3.77;100.00;100549.19;5003389;28;20046;-76
2022/12/06 10:36:50;;;;;;;1999.90;999.90;;;;;;;3.72;100.00;100548.22;5005135;28;20046;-76
2022/12/06 10:39:21;;;;;;;1999.90;999.90;;;;;;;3.70;100.00;100545.59;5004789;28;20026;-76
2022/12/06 10:42:02;;;;;;;1999.90;999.90;;;;;;;3.67;100.00;100549.88;5009697;28;20038;-77
2022/12/06 10:44:36;;;;;;;1999.90;999.90;;;;;;;3.65;100.00;100548.94;5005995;28;20040;-76
2022/12/06 10:47:24;;;;;;;1999.90;999.90;;;;;;;3.55;100.00;100542.63;5004561;28;20061;-76
2022/12/06 10:50:21;;;;;;;1999.90;999.90;;;;;;;3.43;100.00;100551.06;5003248;28;20408;-76
2022/12/06 10:52:50;;;;;;;1999.90;999.90;;;;;;;3.35;100.00;100543.91;5011679;28;20117;-76
2022/12/06 10:55:42;;;;;;;1999.90;999.90;;;;;;;3.27;100.00;100546.31;5002548;28;20436;-76
2022/12/06 10:58:26;;;;;;;1999.90;999.90;;;;;;;3.30;100.00;100546.38;5003278;28;20034;-75
2022/12/06 11:00:59;;;;;;;1999.90;999.90;;;;;;;3.41;100.00;100537.09;5002428;28;20030;-76
2022/12/06 11:03:50;;;;;;;1999.90;999.90;;;;;;;3.38;100.00;100537.03;5031937;22;20048;-74
2022/12/06 11:06:26;;;;;;;1999.90;999.90;;;;;;;3.35;100.00;100547.38;5028970;28;20037;-74
2022/12/06 11:09:22;;;;;;;1999.90;999.90;;;;;;;3.29;100.00;100544.63;5029069;28;20048;-73
2022/12/06 11:11:49;;;;;;;1999.90;999.90;;;;;;;3.23;100.00;100554.94;5023459;28;20102;-73
2022/12/06 11:14:36;;;;;;;1999.90;999.90;;;;;;;3.20;100.00;100547.03;5024912;28;20515;-74
2022/12/06 11:17:25;;;;;;;1999.90;999.90;;;;;;;3.08;100.00;100539.78;5024929;28;20029;-74
2022/12/06 11:20:06;;;;;;;1999.90;999.90;;;;;;;3.13;100.00;100538.19;5022189;28;20034;-74
2022/12/06 11:22:46;;;;;;;1999.90;999.90;;;;;;;3.16;100.00;100542.59;5025682;28;20037;-74
2022/12/06 11:25:35;;;;;;;1999.90;999.90;;;;;;;3.21;100.00;100531.41;5029259;28;20055;-74
2022/12/06 11:28:30;;;;;;;1999.90;999.90;;;;;;;3.29;100.00;100529.88;5028197;28;20060;-74
2022/12/06 11:30:56;;;;;;;1999.90;999.90;;;;;;;3.21;100.00;100525.31;5028299;28;20037;-74
2022/12/06 11:33:29;;;;;;;1999.90;999.90;;;;;;;3.25;100.00;100521.97;5019408;28;20084;-73
2022/12/06 11:35:55;;;;;;;1999.90;999.90;;;;;;;3.26;100.00;100516.75;5022850;28;20074;-73
2022/12/06 11:38:20;;;;;;;1999.90;999.90;;;;;;;3.37;100.00;100514.38;5023673;28;20435;-73
2022/12/06 11:40:49;;;;;;;1999.90;999.90;;;;;;;3.38;100.00;100512.66;5022206;28;20037;-73
2022/12/06 11:43:19;;;;;;;1999.90;999.90;;;;;;;3.41;100.00;100521.44;5021254;28;20061;-73
2022/12/06 11:45:47;;;;;;;1999.90;999.90;;;;;;;3.41;100.00;100511.03;5023140;28;20044;-74
2022/12/06 11:48:21;;;;;;;1999.90;999.90;;;;;;;3.48;100.00;100515.53;5025579;28;20044;-73
2022/12/06 11:50:49;;;;;;;1999.90;999.90;;;;;;;3.57;100.00;100514.84;5021455;28;20504;-74